Time;durP1;ratioP1;P1;durP2;ratioP2;P2;SDS_P1;SDS_P2;PMS_P1;PMS_P2;Temp;Humidity;BMP_temperature;BMP_pressure;BME280_temperature;BME280_humidity;BME280_pressure;Samples;Min_cycle;Max_cycle;Signal;HPM_P1;HPM_P2
2022/01/22 00:00:35;;;;;;;4.73;3.20;;;1.80;99.90;1.50;101023.00;;;;4989474;28;110820;-73
2022/01/22 00:03:01;;;;;;;3.43;2.77;;;1.90;99.90;1.50;101015.00;;;;4973749;28;92769;-72
2022/01/22 00:05:27;;;;;;;4.67;3.53;;;1.70;99.90;1.50;101014.00;;;;4955069;28;95195;-73
2022/01/22 00:07:53;;;;;;;4.27;3.43;;;2.30;99.90;1.60;101007.00;;;;4973539;28;92961;-76
2022/01/22 00:10:23;;;;;;;5.83;3.50;;;1.90;99.90;1.60;101004.00;;;;4973074;28;110448;-72
2022/01/22 00:15:16;;;;;;;4.43;3.07;;;1.90;99.90;1.70;100997.00;;;;4977161;27;93157;-73
2022/01/22 00:17:42;;;;;;;3.87;2.97;;;2.50;99.90;1.70;100997.00;;;;4993682;27;92857;-73
2022/01/22 00:20:09;;;;;;;5.53;3.23;;;2.00;99.90;1.70;100991.00;;;;4993332;28;93078;-72
2022/01/22 00:22:36;;;;;;;4.40;3.63;;;2.00;99.90;1.80;100992.00;;;;4993745;27;92926;-71
2022/01/22 00:25:08;;;;;;;6.00;3.63;;;2.10;99.90;1.80;100984.00;;;;4992803;27;94761;-72
2022/01/22 00:27:38;;;;;;;5.27;3.87;;;2.10;99.90;1.80;100977.00;;;;4993358;27;94413;-72
2022/01/22 00:30:11;;;;;;;6.73;3.67;;;2.10;99.90;1.90;100976.00;;;;5007524;27;92897;-75
2022/01/22 00:32:37;;;;;;;5.67;3.57;;;2.20;99.90;1.90;100994.00;;;;4990620;28;92790;-76
2022/01/22 00:35:05;;;;;;;3.93;3.00;;;2.10;99.90;2.00;100980.00;;;;4992433;27;101739;-74
2022/01/22 00:37:32;;;;;;;5.03;3.83;;;2.20;99.90;2.00;100980.00;;;;4992223;28;93379;-74
2022/01/22 00:39:58;;;;;;;3.40;2.97;;;2.20;99.90;2.00;100974.00;;;;4991913;28;92886;-76
2022/01/22 00:42:24;;;;;;;3.50;3.20;;;2.20;99.90;2.10;100974.00;;;;4990117;27;92327;-74
2022/01/22 00:44:51;;;;;;;5.93;3.50;;;2.30;99.90;2.10;100977.00;;;;5014108;27;93304;-75
2022/01/22 00:47:18;;;;;;;5.00;4.00;;;2.60;99.90;2.10;100970.00;;;;5010956;27;93513;-76
2022/01/22 00:49:45;;;;;;;5.43;4.00;;;2.80;99.90;2.20;100982.00;;;;4993987;27;93834;-73
2022/01/22 00:52:11;;;;;;;5.17;3.43;;;2.50;99.90;2.30;100964.00;;;;5012769;27;93003;-73
2022/01/22 00:54:37;;;;;;;4.80;2.73;;;2.50;99.90;2.30;100977.00;;;;5012059;27;120515;-72
2022/01/22 00:57:03;;;;;;;3.47;2.87;;;2.50;99.90;2.30;100978.00;;;;5007691;27;93099;-72
2022/01/22 00:59:29;;;;;;;4.80;2.93;;;2.60;99.90;2.30;100973.00;;;;4992989;28;96203;-74
2022/01/22 01:01:55;;;;;;;2.77;2.50;;;2.60;99.90;2.40;100985.00;;;;4974204;28;99805;-74
2022/01/22 01:04:21;;;;;;;3.20;2.57;;;2.60;99.90;2.40;100985.00;;;;4992047;28;93763;-75
2022/01/22 01:06:46;;;;;;;2.83;2.37;;;2.60;99.90;2.50;100972.00;;;;4981771;28;104297;-74
2022/01/22 01:09:12;;;;;;;3.53;2.50;;;2.70;99.90;2.50;100991.00;;;;4992132;28;93294;-74
2022/01/22 01:11:45;;;;;;;2.77;2.27;;;2.80;99.90;2.60;100985.00;;;;5006259;27;92763;-73
2022/01/22 01:14:16;;;;;;;3.27;2.43;;;2.80;99.90;2.60;100991.00;;;;5012004;27;94516;-74
2022/01/22 01:33:15;;;;;;;3.03;1.97;;;3.10;99.90;2.90;101006.00;;;;5012661;27;92055;-73
2022/01/22 01:35:41;;;;;;;2.73;1.80;;;3.10;99.90;3.00;100999.00;;;;5012241;27;93513;-74
2022/01/22 01:38:08;;;;;;;1.87;1.33;;;3.20;99.90;3.00;101002.00;;;;5010562;27;93137;-71
2022/01/22 01:40:38;;;;;;;5.00;1.43;;;3.10;99.90;3.00;100993.00;;;;4991476;28;93838;-71
2022/01/22 01:45:31;;;;;;;1.67;1.10;;;3.30;99.90;3.00;100996.00;;;;4992242;27;111383;-73
2022/01/22 01:48:02;;;;;;;1.70;1.17;;;3.10;99.90;3.10;101008.00;;;;4978478;28;92934;-74
2022/01/22 01:50:30;;;;;;;2.30;1.63;;;3.30;99.90;3.10;101001.00;;;;4992688;28;92875;-73
2022/01/22 01:53:12;;;;;;;1.40;1.07;;;3.30;99.90;3.10;101004.00;;;;5004392;27;92921;-72
2022/01/22 01:58:23;;;;;;;2.43;1.30;;;3.30;99.90;3.20;101003.00;;;;5003739;27;92998;-75
2022/01/22 02:00:49;;;;;;;1.53;1.30;;;3.40;99.90;3.20;101013.00;;;;4973483;28;92756;-73
2022/01/22 02:03:15;;;;;;;1.43;1.10;;;3.30;99.90;3.20;101017.00;;;;4991924;27;93034;-74
2022/01/22 02:05:40;;;;;;;1.00;0.90;;;3.40;99.90;3.20;101017.00;;;;4991761;28;94096;-73
2022/01/22 02:08:08;;;;;;;1.40;1.03;;;3.50;99.90;3.20;101001.00;;;;4976493;28;94291;-74
2022/01/22 02:10:39;;;;;;;1.50;1.00;;;3.50;99.90;3.20;101012.00;;;;4991617;28;92675;-72
2022/01/22 02:24:04;;;;;;;0.87;0.63;;;3.50;99.90;3.30;101034.00;;;;4991877;28;92301;-73
2022/01/22 02:26:30;;;;;;;0.43;0.43;;;4.30;99.90;3.40;101024.00;;;;4991802;27;94375;-73
2022/01/22 02:28:56;;;;;;;0.87;0.87;;;3.50;99.90;3.40;101025.00;;;;4991554;27;93793;-72
2022/01/22 02:31:37;;;;;;;0.90;0.70;;;3.60;99.90;3.40;101022.00;;;;4991294;27;94203;-70
2022/01/22 02:36:55;;;;;;;0.43;0.43;;;3.70;99.90;3.50;101033.00;;;;4974372;27;93111;-73
2022/01/22 02:39:25;;;;;;;0.93;0.83;;;3.60;99.90;3.50;101025.00;;;;4995812;27;93070;-71
2022/01/22 02:41:52;;;;;;;0.60;0.43;;;3.60;99.90;3.50;101038.00;;;;5006295;27;93037;-71
2022/01/22 02:44:32;;;;;;;0.60;0.60;;;3.70;99.90;3.50;101039.00;;;;4991576;28;92749;-71
2022/01/22 02:47:00;;;;;;;0.70;0.60;;;3.70;99.90;3.50;101035.00;;;;4991733;27;92964;-71
2022/01/22 02:49:25;;;;;;;0.83;0.50;;;3.80;99.90;3.50;101038.00;;;;4991588;28;93941;-73
2022/01/22 02:51:51;;;;;;;0.60;0.50;;;3.70;99.90;3.50;101038.00;;;;4991934;27;98496;-71
2022/01/22 02:54:17;;;;;;;1.03;0.60;;;3.80;99.90;3.50;101038.00;;;;4992979;27;108734;-71
2022/01/22 02:56:42;;;;;;;1.07;0.90;;;3.80;99.90;3.50;101039.00;;;;4972679;28;94107;-73
2022/01/22 02:59:08;;;;;;;0.90;0.63;;;3.80;99.90;3.50;101044.00;;;;5005370;27;94052;-72
2022/01/22 03:01:34;;;;;;;0.40;0.40;;;3.70;99.90;3.60;101054.00;;;;4993754;27;92859;-72
2022/01/22 03:03:59;;;;;;;1.20;0.50;;;3.70;99.90;3.60;101050.00;;;;4975445;28;106781;-70
2022/01/22 03:06:25;;;;;;;0.70;0.63;;;3.80;99.90;3.60;101056.00;;;;4994646;27;93310;-72
2022/01/22 03:08:51;;;;;;;0.60;0.40;;;3.80;99.90;3.60;101063.00;;;;4993630;28;122569;-72
2022/01/22 03:11:24;;;;;;;1.20;0.80;;;3.80;99.90;3.60;101067.00;;;;5011082;27;110242;-73
2022/01/22 03:16:51;;;;;;;0.97;0.60;;;3.80;99.90;3.60;101069.00;;;;4993407;28;92733;-72
2022/01/22 03:19:33;;;;;;;0.90;0.60;;;3.90;99.90;3.60;101070.00;;;;4994523;28;93321;-72
2022/01/22 03:22:13;;;;;;;0.80;0.70;;;3.80;99.90;3.60;101087.00;;;;5009011;27;93816;-71
2022/01/22 03:27:25;;;;;;;1.07;0.80;;;3.70;99.90;3.60;101104.00;;;;4990453;28;92840;-71
2022/01/22 03:29:51;;;;;;;0.97;0.60;;;3.80;99.90;3.60;101100.00;;;;4975612;28;94363;-72
2022/01/22 03:32:19;;;;;;;1.63;0.97;;;3.70;99.90;3.60;101104.00;;;;5001925;27;92549;-72
2022/01/22 03:34:59;;;;;;;1.30;1.20;;;3.70;99.90;3.60;101103.00;;;;5014044;27;93104;-73
2022/01/22 03:37:26;;;;;;;1.33;1.13;;;3.80;99.90;3.60;101109.00;;;;5013718;27;93647;-73
2022/01/22 03:39:54;;;;;;;1.67;1.10;;;3.80;99.90;3.60;101128.00;;;;4992597;28;92230;-74
2022/01/22 03:42:20;;;;;;;1.07;0.93;;;3.80;99.90;3.60;101119.00;;;;4994907;27;92807;-77
2022/01/22 03:44:46;;;;;;;1.13;0.87;;;3.90;99.90;3.60;101146.00;;;;4975620;28;92806;-73
2022/01/22 03:47:12;;;;;;;1.47;1.10;;;3.90;99.90;3.60;101130.00;;;;4991048;27;97015;-73
2022/01/22 03:49:38;;;;;;;2.03;1.47;;;3.80;99.90;3.60;101140.00;;;;4991207;28;96452;-72
2022/01/22 03:52:04;;;;;;;2.27;1.10;;;3.80;99.90;3.60;101141.00;;;;4978423;28;92947;-73
2022/01/22 03:54:30;;;;;;;1.90;1.03;;;3.80;99.90;3.60;101150.00;;;;4994322;28;93045;-73
2022/01/22 03:56:55;;;;;;;1.60;1.23;;;3.80;99.90;3.60;101150.00;;;;4974937;28;95297;-73
2022/01/22 03:59:21;;;;;;;1.20;1.07;;;3.70;99.90;3.50;101160.00;;;;4992084;28;120763;-74
2022/01/22 04:04:32;;;;;;;0.97;0.90;;;3.60;99.90;3.50;101167.00;;;;4994028;28;92197;-73
2022/01/22 04:09:45;;;;;;;2.00;1.03;;;3.60;99.90;3.40;101182.00;;;;4974256;27;93016;-73
2022/01/22 04:12:16;;;;;;;1.03;0.80;;;3.70;99.90;3.40;101177.00;;;;4992933;27;94113;-72
2022/01/22 04:14:51;;;;;;;1.90;1.53;;;3.60;99.90;3.40;101197.00;;;;4983791;28;92822;-72
2022/01/22 04:17:35;;;;;;;1.40;1.03;;;3.60;99.90;3.30;101191.00;;;;5001285;27;94041;-71
2022/01/22 04:25:34;;;;;;;4.87;1.77;;;3.60;99.90;3.20;101192.00;;;;5010964;27;93197;-72
2022/01/22 04:28:00;;;;;;;1.87;1.40;;;4.10;99.90;3.20;101205.00;;;;4994569;27;94614;-71
2022/01/22 04:30:28;;;;;;;2.10;1.77;;;3.50;99.90;3.20;101213.00;;;;5012910;27;124104;-72
2022/01/22 04:32:54;;;;;;;2.27;1.40;;;3.60;99.90;3.20;101223.00;;;;4981673;28;92960;-71
2022/01/22 04:35:22;;;;;;;2.70;1.37;;;3.40;99.90;3.20;101211.00;;;;4994177;27;92838;-71
2022/01/22 04:37:51;;;;;;;3.87;1.37;;;3.50;99.90;3.20;101223.00;;;;4992631;27;93970;-71
2022/01/22 04:40:17;;;;;;;1.63;1.47;;;3.40;99.90;3.20;101219.00;;;;4992539;27;121576;-71
2022/01/22 04:42:44;;;;;;;2.67;1.60;;;3.30;99.90;3.10;101234.00;;;;4958146;28;92903;-71
2022/01/22 04:45:49;;;;;;;2.03;1.70;;;3.50;99.90;3.20;101233.00;;;;4992645;28;108255;-71
2022/01/22 04:55:40;;;;;;;2.77;1.37;;;3.30;99.90;3.10;101261.00;;;;5010917;27;91938;-69
2022/01/22 04:58:07;;;;;;;1.50;1.17;;;3.40;99.90;3.10;101260.00;;;;5008598;27;93289;-69
2022/01/22 05:00:36;;;;;;;1.77;1.30;;;3.30;99.90;3.10;101263.00;;;;5012616;27;116837;-68
2022/01/22 05:03:04;;;;;;;1.20;1.10;;;3.30;99.90;3.10;101267.00;;;;5000651;27;93820;-70
2022/01/22 05:05:31;;;;;;;2.47;1.70;;;3.50;99.90;3.10;101273.00;;;;4993548;28;93156;-70
2022/01/22 05:07:57;;;;;;;2.10;1.57;;;3.40;99.90;3.10;101256.00;;;;5011160;27;93581;-70
2022/01/22 05:10:23;;;;;;;2.63;1.80;;;3.60;99.90;3.10;101264.00;;;;5004841;27;123130;-71
2022/01/22 05:12:49;;;;;;;3.37;1.70;;;3.50;99.90;3.20;101272.00;;;;4992839;28;92933;-71
2022/01/22 05:15:16;;;;;;;3.93;1.97;;;4.10;99.90;3.20;101275.00;;;;4993080;28;92912;-70
2022/01/22 05:17:44;;;;;;;1.80;1.63;;;3.50;99.90;3.10;101279.00;;;;4992455;27;94099;-70
2022/01/22 05:25:28;;;;;;;3.40;1.63;;;3.40;99.90;3.00;101282.00;;;;5010382;27;92841;-70
2022/01/22 05:29:14;;;;;;;1.93;0.97;;;3.30;99.90;3.00;101283.00;;;;5011969;27;94006;-70
2022/01/22 05:30:56;;;;;;;1.90;1.27;;;3.30;99.90;2.90;101294.00;;;;4984549;27;93129;-69
2022/01/22 05:38:35;;;;;;;3.40;1.50;;;3.10;99.90;2.80;101299.00;;;;5010082;27;92814;-70
2022/01/22 05:41:01;;;;;;;2.03;1.07;;;3.20;99.90;2.80;101309.00;;;;4980414;28;94967;-70
2022/01/22 05:43:27;;;;;;;3.27;1.40;;;3.30;99.90;2.80;101309.00;;;;4992290;27;92869;-69
2022/01/22 05:45:53;;;;;;;3.33;1.40;;;3.10;99.90;2.80;101317.00;;;;5013172;27;108793;-69
2022/01/22 05:48:19;;;;;;;2.13;1.23;;;3.10;99.90;2.80;101316.00;;;;4994847;27;115457;-69
2022/01/22 05:50:50;;;;;;;0.93;0.80;;;3.50;99.90;2.80;101320.00;;;;4973821;28;93354;-69
2022/01/22 05:53:44;;;;;;;1.43;0.80;;;3.20;99.90;2.80;101331.00;;;;4991830;27;93897;-69
2022/01/22 06:01:23;;;;;;;1.53;1.20;;;3.10;99.90;2.80;101347.00;;;;4989593;27;92942;-68
2022/01/22 06:03:49;;;;;;;0.90;0.90;;;3.60;99.90;2.70;101341.00;;;;4992711;28;92856;-69
2022/01/22 06:06:15;;;;;;;1.80;1.57;;;3.10;99.90;2.70;101356.00;;;;4991410;28;108198;-68
2022/01/22 06:08:54;;;;;;;2.53;1.13;;;3.70;99.90;2.70;101347.00;;;;4991576;28;94043;-68
2022/01/22 06:11:25;;;;;;;0.70;0.57;;;3.10;99.90;2.70;101367.00;;;;4992239;27;92108;-69
2022/01/22 06:13:51;;;;;;;5.73;1.10;;;3.30;99.90;2.70;101370.00;;;;4992181;28;92997;-69
2022/01/22 06:16:22;;;;;;;1.63;1.30;;;2.90;99.90;2.70;101382.00;;;;4992072;28;92721;-69
2022/01/22 06:18:49;;;;;;;1.37;0.83;;;2.90;99.90;2.70;101385.00;;;;4972236;28;96256;-68
2022/01/22 06:21:16;;;;;;;2.57;1.33;;;3.00;99.90;2.70;101365.00;;;;4992199;28;94060;-68
2022/01/22 06:23:45;;;;;;;1.37;1.17;;;3.20;99.90;2.70;101377.00;;;;4973276;28;92797;-70
2022/01/22 06:26:11;;;;;;;2.40;1.20;;;3.60;99.90;2.80;101384.00;;;;4993921;27;92784;-71
2022/01/22 06:28:37;;;;;;;3.13;1.47;;;3.30;99.90;2.70;101389.00;;;;4979669;28;92976;-71
2022/01/22 06:31:05;;;;;;;2.97;1.30;;;3.00;99.90;2.80;101390.00;;;;5006888;27;92854;-69
2022/01/22 06:33:31;;;;;;;1.30;0.90;;;3.10;99.90;2.80;101399.00;;;;5008970;27;110452;-71
2022/01/22 06:35:56;;;;;;;1.23;1.10;;;3.00;99.90;2.80;101395.00;;;;5011004;27;108236;-69
2022/01/22 06:38:23;;;;;;;2.57;1.97;;;3.00;99.90;2.80;101404.00;;;;5010503;27;97601;-70
2022/01/22 06:43:33;;;;;;;3.03;1.17;;;3.10;99.90;2.80;101400.00;;;;5007129;27;94048;-70
2022/01/22 06:45:59;;;;;;;3.37;1.63;;;3.00;99.90;2.80;101407.00;;;;5010795;27;108478;-69
2022/01/22 06:48:25;;;;;;;1.57;1.47;;;3.90;99.90;2.80;101407.00;;;;4987615;27;122503;-70
2022/01/22 06:50:51;;;;;;;3.43;1.50;;;3.60;99.90;2.70;101408.00;;;;5009832;27;108273;-71
2022/01/22 06:53:17;;;;;;;2.50;1.13;;;3.60;99.90;2.70;101420.00;;;;5010168;27;95181;-71
2022/01/22 06:55:47;;;;;;;2.30;1.53;;;3.30;99.90;2.70;101416.00;;;;5009264;27;92851;-70
2022/01/22 06:58:13;;;;;;;3.00;1.80;;;3.70;99.90;2.70;101420.00;;;;5001522;27;93222;-72
2022/01/22 07:00:39;;;;;;;1.67;1.17;;;2.90;99.90;2.60;101434.00;;;;5006156;27;121855;-70
2022/01/22 07:03:05;;;;;;;1.63;1.10;;;3.20;99.90;2.60;101432.00;;;;4999430;27;110704;-70
2022/01/22 07:05:33;;;;;;;5.03;1.73;;;2.80;99.90;2.60;101439.00;;;;5007527;27;108634;-70
2022/01/22 07:07:58;;;;;;;2.17;1.70;;;3.40;99.90;2.60;101445.00;;;;5005748;27;94937;-70
2022/01/22 07:10:24;;;;;;;2.60;1.60;;;3.40;99.90;2.60;101433.00;;;;5007954;27;100642;-72
2022/01/22 07:12:50;;;;;;;2.73;1.70;;;2.80;99.90;2.60;101437.00;;;;4975545;27;109826;-73
2022/01/22 07:15:16;;;;;;;1.80;1.53;;;2.80;99.90;2.70;101451.00;;;;5007172;27;108098;-71
2022/01/22 07:17:43;;;;;;;3.90;2.03;;;2.90;99.90;2.70;101461.00;;;;4992349;27;93445;-71
2022/01/22 07:20:14;;;;;;;2.43;1.47;;;2.90;99.90;2.60;101450.00;;;;5005613;27;92793;-72
2022/01/22 07:22:50;;;;;;;2.80;2.07;;;2.90;99.90;2.60;101457.00;;;;4991204;27;92736;-71
2022/01/22 07:25:17;;;;;;;2.60;1.90;;;2.90;99.90;2.50;101455.00;;;;4987595;27;92166;-70
2022/01/22 07:27:42;;;;;;;2.47;1.80;;;3.40;99.90;2.50;101456.00;;;;4993077;27;93585;-72
2022/01/22 07:30:09;;;;;;;2.33;1.20;;;3.10;99.90;2.50;101461.00;;;;4998320;27;120656;-70
2022/01/22 07:32:37;;;;;;;2.93;1.73;;;2.80;99.90;2.50;101468.00;;;;5000685;27;93774;-71
2022/01/22 07:35:05;;;;;;;3.27;2.07;;;2.70;99.90;2.40;101460.00;;;;4998678;27;92785;-71
2022/01/22 07:37:31;;;;;;;3.83;1.97;;;2.70;99.90;2.40;101465.00;;;;4991274;27;101462;-71
2022/01/22 07:39:57;;;;;;;3.27;1.97;;;2.70;99.90;2.40;101471.00;;;;4988616;27;93797;-72
2022/01/22 07:42:23;;;;;;;1.93;1.30;;;2.70;99.90;2.40;101469.00;;;;4994741;27;92883;-71
2022/01/22 07:44:49;;;;;;;4.93;2.10;;;2.90;99.90;2.40;101471.00;;;;4960588;27;98563;-72
2022/01/22 07:47:14;;;;;;;5.60;1.77;;;4.30;99.90;2.40;101474.00;;;;5000805;27;122731;-71
2022/01/22 07:49:41;;;;;;;2.87;2.13;;;3.20;99.90;2.50;101481.00;;;;5008101;27;94153;-72
2022/01/22 07:52:07;;;;;;;3.47;1.87;;;3.00;99.90;2.50;101473.00;;;;4998205;27;92907;-72
2022/01/22 07:54:34;;;;;;;3.23;2.03;;;2.70;99.90;2.50;101466.00;;;;4979062;27;93129;-73
2022/01/22 07:57:02;;;;;;;5.37;1.73;;;2.80;99.90;2.40;101478.00;;;;4985135;27;102287;-71
2022/01/22 07:59:33;;;;;;;5.83;2.20;;;3.50;99.90;2.40;101483.00;;;;5003033;27;94670;-70
2022/01/22 08:02:00;;;;;;;2.27;1.57;;;2.70;99.90;2.40;101487.00;;;;4988364;27;93130;-72
2022/01/22 08:04:26;;;;;;;2.77;1.77;;;2.70;99.90;2.40;101491.00;;;;4992267;27;92662;-73
2022/01/22 08:06:53;;;;;;;2.87;2.00;;;2.70;99.90;2.40;101497.00;;;;5001842;27;124937;-71
2022/01/22 08:09:20;;;;;;;3.87;2.60;;;2.90;99.90;2.50;101497.00;;;;5010131;27;92906;-72
2022/01/22 08:11:46;;;;;;;3.60;2.20;;;2.70;99.90;2.50;101508.00;;;;4983781;28;93073;-73
2022/01/22 08:14:12;;;;;;;3.30;2.10;;;2.70;99.90;2.60;101516.00;;;;4966922;27;95577;-72
2022/01/22 08:16:38;;;;;;;4.77;2.33;;;2.80;99.90;2.60;101524.00;;;;4982872;27;97295;-71
2022/01/22 08:19:04;;;;;;;2.53;1.73;;;2.90;99.90;2.70;101526.00;;;;5010174;27;93008;-72
2022/01/22 08:21:30;;;;;;;3.10;2.03;;;2.90;99.90;2.90;101526.00;;;;5008874;27;95307;-71
2022/01/22 08:23:56;;;;;;;3.00;1.80;;;3.50;99.90;3.00;101539.00;;;;5007202;27;93211;-73
2022/01/22 08:26:27;;;;;;;4.40;2.53;;;3.80;99.90;3.10;101543.00;;;;4991377;27;93364;-70
2022/01/22 08:28:53;;;;;;;6.53;2.33;;;3.20;99.90;3.20;101545.00;;;;4999110;27;93156;-71
2022/01/22 08:36:37;;;;;;;3.03;1.87;;;4.10;99.90;3.50;101555.00;;;;5006979;27;93246;-69
2022/01/22 08:39:04;;;;;;;11.47;2.13;;;3.60;99.90;3.50;101565.00;;;;5010605;27;93067;-71
2022/01/22 08:41:30;;;;;;;2.33;2.07;;;3.80;99.90;3.40;101568.00;;;;5010716;27;92855;-69
2022/01/22 08:43:57;;;;;;;3.13;2.03;;;3.70;99.90;3.50;101568.00;;;;5009981;27;93264;-69
2022/01/22 08:46:24;;;;;;;3.43;2.23;;;3.70;99.90;3.50;101576.00;;;;4990696;27;94007;-69
2022/01/22 08:48:50;;;;;;;3.77;1.90;;;3.60;99.90;3.50;101573.00;;;;5009734;27;110393;-70
2022/01/22 08:51:15;;;;;;;4.60;1.93;;;3.70;99.90;3.50;101583.00;;;;5010017;27;92854;-70
2022/01/22 08:53:41;;;;;;;5.23;1.97;;;3.70;99.90;3.40;101581.00;;;;5009830;27;92956;-70
2022/01/22 08:56:09;;;;;;;2.23;1.50;;;3.70;99.90;3.40;101589.00;;;;4990450;27;95736;-69
2022/01/22 08:58:36;;;;;;;3.40;2.00;;;3.70;99.90;3.40;101586.00;;;;4999845;27;93848;-68
2022/01/22 09:01:03;;;;;;;2.53;1.77;;;3.70;99.90;3.40;101592.00;;;;5005360;27;92839;-68
2022/01/22 09:03:30;;;;;;;3.77;2.23;;;3.70;99.90;3.50;101604.00;;;;5005575;27;92288;-67
2022/01/22 09:05:56;;;;;;;7.30;2.30;;;3.60;99.90;3.50;101609.00;;;;5010074;27;94031;-69
2022/01/22 09:08:24;;;;;;;4.07;1.77;;;3.70;99.90;3.60;101614.00;;;;5001836;27;93583;-69
2022/01/22 09:10:52;;;;;;;10.47;2.60;;;3.80;99.90;3.70;101621.00;;;;5009878;27;93956;-69
2022/01/22 09:13:22;;;;;;;2.80;1.63;;;3.80;99.90;3.90;101628.00;;;;5005859;27;92795;-70
2022/01/22 09:15:53;;;;;;;4.73;2.20;;;3.90;99.90;4.10;101624.00;;;;5009253;27;99910;-70
2022/01/22 09:18:19;;;;;;;3.97;2.33;;;4.20;99.90;4.20;101628.00;;;;4988899;27;92864;-69
2022/01/22 09:21:01;;;;;;;2.20;2.00;;;4.30;99.90;4.40;101638.00;;;;5009258;27;93083;-68
2022/01/22 09:23:29;;;;;;;4.40;2.80;;;4.50;99.90;4.70;101640.00;;;;4999515;27;92980;-68
2022/01/22 09:25:55;;;;;;;4.40;2.43;;;4.70;99.90;4.80;101641.00;;;;4987944;27;93769;-70
2022/01/22 09:28:21;;;;;;;3.87;2.80;;;4.90;99.90;4.80;101649.00;;;;5005248;27;93720;-68
2022/01/22 09:30:47;;;;;;;5.17;2.63;;;5.00;99.90;4.90;101654.00;;;;5006405;27;92744;-69
2022/01/22 09:33:14;;;;;;;4.93;2.63;;;5.00;99.90;4.90;101657.00;;;;5009729;27;92989;-69
2022/01/22 09:35:40;;;;;;;5.67;2.33;;;5.00;99.90;4.90;101655.00;;;;5008641;27;100132;-69
2022/01/22 09:38:06;;;;;;;3.93;2.73;;;5.10;99.90;4.80;101661.00;;;;5006535;27;124569;-70
2022/01/22 09:40:32;;;;;;;4.43;1.60;;;5.00;99.90;4.70;101662.00;;;;5007735;27;110453;-70
2022/01/22 09:42:59;;;;;;;4.33;2.03;;;4.90;99.90;4.60;101664.00;;;;5007143;27;107994;-70
2022/01/22 09:45:28;;;;;;;5.33;2.23;;;4.80;99.90;4.60;101661.00;;;;4990100;27;93295;-69
2022/01/22 09:47:55;;;;;;;5.10;1.67;;;4.80;99.90;4.70;101668.00;;;;5004185;27;93771;-70
2022/01/22 09:50:24;;;;;;;6.87;2.40;;;4.80;99.90;4.80;101664.00;;;;5008125;27;93482;-72
2022/01/22 09:52:50;;;;;;;8.63;2.63;;;4.90;99.90;5.10;101675.00;;;;5009696;27;92318;-71
2022/01/22 09:55:17;;;;;;;2.70;1.97;;;5.10;99.90;5.30;101674.00;;;;4982337;27;122487;-72
2022/01/22 09:57:44;;;;;;;3.03;1.77;;;5.50;99.90;5.70;101682.00;;;;5008679;27;94502;-73
2022/01/22 10:00:13;;;;;;;2.17;1.90;;;5.60;99.90;6.10;101678.00;;;;5007079;27;93802;-72
2022/01/22 10:02:48;;;;;;;4.37;1.77;;;6.00;99.90;6.20;101679.00;;;;5007259;27;92863;-75
2022/01/22 10:05:38;;;;;;;7.53;1.60;;;6.20;99.90;6.10;101663.00;;;;5007412;27;94356;-73
2022/01/22 10:08:24;;;;;;;3.13;1.60;;;6.30;99.90;6.10;101670.00;;;;4988436;27;93100;-73
2022/01/22 10:10:50;;;;;;;3.50;1.17;;;6.20;99.90;6.00;101674.00;;;;5003589;27;93017;-74
2022/01/22 10:13:45;;;;;;;1.80;1.37;;;6.20;99.90;5.90;101680.00;;;;4987801;27;92799;-71
2022/01/22 10:16:32;;;;;;;1.37;1.20;;;6.10;99.90;6.20;101681.00;;;;4972275;27;95698;-70
2022/01/22 10:19:22;;;;;;;3.07;1.60;;;6.30;99.90;6.70;101685.00;;;;5003949;27;92875;-73
2022/01/22 10:21:57;;;;;;;4.43;2.37;;;6.60;99.90;7.20;101694.00;;;;4987386;27;92907;-73
2022/01/22 10:24:40;;;;;;;2.03;1.30;;;7.10;99.90;7.90;101701.00;;;;4989233;27;92595;-72
2022/01/22 10:27:30;;;;;;;3.60;1.10;;;7.60;99.90;8.10;101709.00;;;;4965307;28;96608;-73
2022/01/22 10:30:02;;;;;;;2.20;0.90;;;8.70;99.90;8.10;101710.00;;;;4985291;27;95124;-72
2022/01/22 10:32:51;;;;;;;2.10;0.93;;;8.20;99.90;7.80;101708.00;;;;5008594;27;92905;-72
2022/01/22 10:35:25;;;;;;;3.33;1.17;;;8.00;99.90;7.60;101700.00;;;;5008914;27;92716;-72
2022/01/22 10:38:01;;;;;;;1.23;1.03;;;7.80;99.90;7.60;101685.00;;;;4981826;27;93317;-72
2022/01/22 10:40:31;;;;;;;1.40;0.90;;;7.70;99.90;7.70;101699.00;;;;4989661;27;93233;-71
2022/01/22 10:43:22;;;;;;;1.63;0.87;;;7.80;99.90;8.10;101705.00;;;;4995897;27;98717;-71
2022/01/22 10:47:03;;;;;;;1.00;0.83;;;8.00;99.90;8.30;101700.00;;;;5008801;27;92341;-70
2022/01/22 10:49:11;;;;;;;1.43;1.03;;;8.20;99.90;8.70;101711.00;;;;4980334;27;93020;-70
2022/01/22 10:52:00;;;;;;;3.23;1.00;;;8.60;99.90;8.90;101710.00;;;;5005899;27;92882;-69
2022/01/22 10:54:33;;;;;;;6.13;1.27;;;8.80;99.90;8.90;101710.00;;;;4978302;28;93900;-70
2022/01/22 10:57:19;;;;;;;1.83;1.10;;;8.90;99.90;8.70;101712.00;;;;5006033;27;92888;-70
2022/01/22 10:59:47;;;;;;;2.43;1.13;;;8.80;99.90;8.50;101710.00;;;;4982896;27;112730;-69
2022/01/22 11:02:14;;;;;;;0.40;0.40;;;8.60;99.90;8.40;101716.00;;;;5001796;27;93478;-68
2022/01/22 11:04:42;;;;;;;2.63;1.20;;;8.50;99.90;8.40;101706.00;;;;4988888;27;93293;-69
2022/01/22 11:07:15;;;;;;;1.17;0.90;;;8.40;99.90;8.30;101698.00;;;;5007006;27;92917;-69
2022/01/22 11:09:41;;;;;;;1.17;0.87;;;8.40;99.90;8.20;101711.00;;;;5000312;27;93216;-70
2022/01/22 11:12:08;;;;;;;6.73;1.10;;;8.40;99.90;8.10;101718.00;;;;5008051;27;93326;-69
2022/01/22 11:14:37;;;;;;;2.00;0.50;;;8.20;99.90;8.00;101714.00;;;;5007736;27;92933;-69
2022/01/22 11:17:03;;;;;;;0.57;0.57;;;8.10;99.90;8.00;101711.00;;;;4987802;27;93517;-69
2022/01/22 11:19:32;;;;;;;1.10;0.57;;;8.10;99.90;8.20;101709.00;;;;5007667;27;94277;-71
2022/01/22 11:22:09;;;;;;;2.10;0.80;;;8.20;99.90;8.50;101717.00;;;;4991359;27;94265;-69
2022/01/22 11:24:39;;;;;;;0.50;0.50;;;8.40;99.90;8.90;101725.00;;;;5004052;27;92882;-70
2022/01/22 11:27:08;;;;;;;1.40;0.97;;;8.70;99.90;9.30;101725.00;;;;5004520;27;93408;-68
2022/01/22 11:29:41;;;;;;;0.50;0.47;;;9.10;99.90;9.70;101719.00;;;;5001073;27;112600;-69
2022/01/22 11:32:12;;;;;;;1.33;0.60;;;9.50;99.90;10.00;101719.00;;;;4991779;27;107277;-70
2022/01/22 11:34:41;;;;;;;2.03;0.87;;;9.80;99.90;10.20;101722.00;;;;4992659;27;92966;-69
2022/01/22 11:37:24;;;;;;;0.60;0.40;;;10.10;99.90;10.20;101703.00;;;;4992004;27;92689;-69
2022/01/22 11:40:16;;;;;;;1.37;0.40;;;10.10;99.90;10.10;101710.00;;;;5007936;27;108728;-69
2022/01/22 11:43:27;;;;;;;1.90;0.90;;;10.00;99.90;9.90;101719.00;;;;5010056;27;93073;-71
2022/01/22 11:45:54;;;;;;;0.40;0.30;;;10.00;99.70;9.70;101716.00;;;;5010946;27;93868;-68
2022/01/22 11:48:27;;;;;;;1.63;0.70;;;9.70;98.70;9.40;101721.00;;;;5011027;27;92993;-69
2022/01/22 11:51:24;;;;;;;1.03;0.50;;;9.50;99.30;9.10;101724.00;;;;4988552;27;94120;-69
2022/01/22 11:53:58;;;;;;;0.87;0.53;;;9.30;99.90;9.00;101737.00;;;;5010917;27;93114;-71
2022/01/22 11:56:28;;;;;;;0.20;0.20;;;9.10;99.90;8.80;101731.00;;;;4990939;27;92893;-69
2022/01/22 11:59:00;;;;;;;1.13;0.83;;;8.90;99.60;8.90;101735.00;;;;4992347;27;93004;-68
2022/01/22 12:01:38;;;;;;;0.83;0.50;;;8.90;99.90;9.10;101723.00;;;;5006845;27;93259;-70
2022/01/22 12:04:06;;;;;;;0.30;0.20;;;9.10;99.90;9.50;101717.00;;;;5002645;27;93251;-70
2022/01/22 12:06:32;;;;;;;0.40;0.40;;;9.40;99.90;9.80;101723.00;;;;5008979;27;92800;-70
2022/01/22 12:09:14;;;;;;;0.30;0.30;;;9.60;99.90;9.90;101712.00;;;;5005256;27;102401;-70
2022/01/22 12:14:55;;;;;;;0.50;0.50;;;9.90;98.50;10.20;101716.00;;;;5005429;27;93713;-69
2022/01/22 12:17:50;;;;;;;0.80;0.57;;;10.10;97.70;10.30;101715.00;;;;4984801;27;92969;-70
2022/01/22 12:21:30;;;;;;;0.50;0.37;;;10.20;97.50;10.50;101723.00;;;;5000929;27;93193;-68
2022/01/22 12:23:30;;;;;;;0.70;0.30;;;10.40;97.50;10.60;101726.00;;;;5009728;27;92834;-69
2022/01/22 12:25:58;;;;;;;1.07;0.40;;;10.50;96.40;10.50;101728.00;;;;5010914;27;93313;-69
2022/01/22 12:28:42;;;;;;;3.17;0.73;;;10.40;95.90;10.50;101722.00;;;;5009197;27;92859;-69
2022/01/22 12:31:19;;;;;;;0.60;0.60;;;10.80;95.70;10.30;101715.00;;;;5002513;27;92607;-69
2022/01/22 12:33:53;;;;;;;3.47;0.70;;;10.30;96.00;10.20;101730.00;;;;5010115;27;94174;-68
2022/01/22 12:36:38;;;;;;;0.83;0.60;;;10.20;96.10;10.00;101728.00;;;;5004762;27;93431;-69
2022/01/22 12:39:10;;;;;;;1.27;0.80;;;10.00;95.20;10.00;101730.00;;;;5003444;27;93946;-69
2022/01/22 12:44:15;;;;;;;1.40;1.07;;;10.00;95.80;10.20;101730.00;;;;5009497;27;92924;-70